Time;durP1;ratioP1;P1;durP2;ratioP2;P2;SDS_P1;SDS_P2;PMS_P1;PMS_P2;Temp;Humidity;BMP_temperature;BMP_pressure;BME280_temperature;BME280_humidity;BME280_pressure;Samples;Min_cycle;Max_cycle;Signal;HPM_P1;HPM_P2
2021/05/28 00:00:25;;;;;;;17.27;7.80;;;9.80;94.70;;;;;;5071068;28;20338;-75
2021/05/28 00:02:51;;;;;;;14.25;7.15;;;9.80;94.50;;;;;;5074381;28;20040;-75
2021/05/28 00:05:17;;;;;;;19.13;9.80;;;9.80;94.50;;;;;;5074165;28;20048;-74
2021/05/28 00:07:44;;;;;;;23.05;10.18;;;9.80;94.50;;;;;;5074339;28;20124;-75
2021/05/28 00:10:10;;;;;;;20.75;8.30;;;9.80;94.50;;;;;;5074400;28;20485;-75
2021/05/28 00:12:37;;;;;;;18.85;8.63;;;;;;;;;;5074086;28;20048;-76
2021/05/28 00:15:05;;;;;;;15.32;7.80;;;9.70;94.40;;;;;;5073966;28;20052;-75
2021/05/28 00:17:31;;;;;;;17.17;8.18;;;9.80;94.70;;;;;;5056866;28;20471;-76
2021/05/28 00:19:58;;;;;;;20.20;6.90;;;9.80;94.60;;;;;;5073926;28;20044;-75
2021/05/28 00:22:25;;;;;;;16.77;7.13;;;9.80;94.60;;;;;;5073383;28;20044;-75
2021/05/28 00:24:51;;;;;;;28.98;8.52;;;9.80;94.80;;;;;;5074093;28;20055;-76
2021/05/28 00:27:18;;;;;;;19.83;8.13;;;9.70;94.90;;;;;;5074253;28;20040;-74
2021/05/28 00:29:44;;;;;;;16.70;7.90;;;9.80;94.80;;;;;;5074034;28;20043;-75
2021/05/28 00:32:10;;;;;;;17.25;6.82;;;9.80;94.70;;;;;;5073847;28;20052;-75
2021/05/28 00:34:36;;;;;;;17.58;7.43;;;9.80;94.70;;;;;;5073395;28;20045;-75
2021/05/28 00:37:02;;;;;;;19.20;7.90;;;9.80;94.80;;;;;;5073994;28;20048;-76
2021/05/28 00:39:29;;;;;;;24.95;8.15;;;9.70;94.60;;;;;;5073459;28;20334;-76
2021/05/28 00:41:55;;;;;;;18.42;7.60;;;9.70;94.80;;;;;;5073496;28;20055;-76
2021/05/28 00:44:23;;;;;;;23.38;6.50;;;9.80;94.90;;;;;;5073900;28;20162;-76
2021/05/28 00:46:50;;;;;;;19.25;7.90;;;9.90;94.80;;;;;;5074023;28;20314;-76
2021/05/28 00:49:16;;;;;;;17.33;5.97;;;9.80;94.80;;;;;;5069420;28;20037;-77
2021/05/28 00:51:42;;;;;;;16.35;7.07;;;9.80;94.70;;;;;;5035639;28;20060;-77
2021/05/28 00:54:10;;;;;;;16.90;7.70;;;9.50;94.80;;;;;;5053359;28;20049;-75
2021/05/28 00:56:39;;;;;;;17.20;6.47;;;10.30;95.10;;;;;;5053503;28;20501;-75
2021/05/28 00:59:08;;;;;;;15.30;6.55;;;9.70;94.80;;;;;;5053319;28;20076;-75
2021/05/28 01:01:34;;;;;;;19.83;7.00;;;9.70;95.70;;;;;;5052878;28;20041;-76
2021/05/28 01:04:02;;;;;;;19.23;7.22;;;9.70;95.50;;;;;;5052975;28;20060;-76
2021/05/28 01:06:29;;;;;;;19.83;6.78;;;9.70;95.10;;;;;;5053361;28;20053;-76
2021/05/28 01:08:55;;;;;;;15.00;6.55;;;9.70;94.90;;;;;;5035572;28;20053;-76
2021/05/28 01:11:22;;;;;;;18.48;6.80;;;9.50;94.80;;;;;;5053591;28;20048;-75
2021/05/28 01:13:49;;;;;;;17.00;5.95;;;9.70;94.90;;;;;;5053382;28;20431;-76
2021/05/28 01:16:16;;;;;;;17.30;6.22;;;9.90;97.20;;;;;;5053016;28;20056;-75
2021/05/28 01:18:46;;;;;;;15.23;6.55;;;9.70;94.90;;;;;;5053450;28;20033;-76
2021/05/28 01:21:12;;;;;;;12.95;6.00;;;9.70;95.00;;;;;;5053934;28;20291;-76
2021/05/28 01:23:39;;;;;;;20.35;6.45;;;9.70;94.90;;;;;;5054257;28;20053;-77
2021/05/28 01:26:06;;;;;;;15.75;5.68;;;9.70;94.90;;;;;;5053939;28;20057;-76
2021/05/28 01:28:33;;;;;;;16.38;6.35;;;9.70;94.90;;;;;;5052938;28;20049;-75
2021/05/28 01:31:00;;;;;;;19.33;6.25;;;9.80;94.80;;;;;;5052943;28;20045;-74
2021/05/28 01:33:27;;;;;;;18.45;6.63;;;9.70;94.80;;;;;;5053968;28;20053;-74
2021/05/28 01:35:56;;;;;;;21.55;6.57;;;9.80;94.80;;;;;;5056535;28;20448;-74
2021/05/28 01:38:23;;;;;;;20.80;6.78;;;9.70;94.80;;;;;;5057157;28;20052;-74
2021/05/28 01:40:49;;;;;;;15.70;6.65;;;9.70;95.00;;;;;;5056857;28;20295;-74
2021/05/28 01:43:16;;;;;;;13.38;5.63;;;9.70;95.10;;;;;;5063795;28;20044;-74
2021/05/28 01:45:42;;;;;;;17.15;7.65;;;9.70;94.90;;;;;;5039595;28;20041;-75
2021/05/28 01:48:09;;;;;;;18.67;7.80;;;9.70;95.20;;;;;;5056872;28;20056;-75
2021/05/28 01:50:44;;;;;;;14.43;6.20;;;9.80;94.90;;;;;;5050652;28;20052;-74
2021/05/28 01:53:18;;;;;;;21.23;8.38;;;9.80;94.80;;;;;;5076470;28;20436;-74
2021/05/28 01:55:45;;;;;;;17.73;6.72;;;9.70;94.90;;;;;;5077365;28;20330;-74
2021/05/28 01:58:14;;;;;;;20.17;8.20;;;9.80;94.80;;;;;;5077501;28;20044;-74
2021/05/28 02:00:41;;;;;;;16.92;7.07;;;9.80;94.90;;;;;;5071623;28;20048;-74
2021/05/28 02:03:08;;;;;;;13.70;6.97;;;9.80;94.90;;;;;;5057057;28;20045;-74
2021/05/28 02:05:35;;;;;;;17.02;7.47;;;9.90;94.80;;;;;;5056871;28;20561;-74
2021/05/28 02:08:03;;;;;;;19.70;8.48;;;9.80;94.90;;;;;;5057188;28;20057;-74
2021/05/28 02:10:30;;;;;;;19.25;8.00;;;9.90;94.80;;;;;;5056742;28;20052;-74
2021/05/28 02:12:59;;;;;;;23.02;9.38;;;9.90;94.70;;;;;;5056673;28;20045;-74
2021/05/28 02:15:26;;;;;;;20.33;9.27;;;9.90;94.70;;;;;;5055982;28;20049;-74
2021/05/28 02:17:54;;;;;;;15.23;7.88;;;9.90;94.70;;;;;;5056414;28;20053;-74
2021/05/28 02:20:21;;;;;;;16.55;7.68;;;9.90;94.70;;;;;;5056962;28;20048;-74
2021/05/28 02:22:47;;;;;;;16.27;6.75;;;9.90;94.70;;;;;;5055990;28;20052;-74
2021/05/28 02:25:14;;;;;;;20.55;7.85;;;9.90;94.80;;;;;;5056996;28;20053;-75
2021/05/28 02:27:40;;;;;;;20.63;7.47;;;9.90;94.80;;;;;;5056424;28;20076;-74
2021/05/28 02:30:07;;;;;;;11.63;6.22;;;9.90;94.80;;;;;;5056534;28;20053;-75
2021/05/28 02:32:34;;;;;;;23.42;7.45;;;9.90;94.60;;;;;;5056625;28;20053;-75
2021/05/28 02:35:00;;;;;;;18.52;6.13;;;9.90;94.60;;;;;;5056503;28;20052;-74
2021/05/28 02:37:26;;;;;;;19.33;6.10;;;10.00;94.80;;;;;;5056315;28;20067;-74
2021/05/28 02:39:53;;;;;;;19.00;6.60;;;9.80;94.70;;;;;;5056745;28;20060;-74
2021/05/28 02:42:19;;;;;;;19.15;6.65;;;9.80;94.80;;;;;;5056121;28;20052;-74
2021/05/28 02:44:45;;;;;;;14.27;6.50;;;9.70;94.80;;;;;;5037547;28;20057;-75
2021/05/28 02:47:11;;;;;;;14.38;6.85;;;9.70;94.90;;;;;;5056350;28;20049;-73
2021/05/28 02:49:38;;;;;;;17.60;6.75;;;9.70;94.80;;;;;;5060809;28;20045;-74
2021/05/28 02:52:05;;;;;;;18.05;7.25;;;9.70;94.90;;;;;;5056148;28;20053;-74
2021/05/28 02:54:31;;;;;;;24.30;7.15;;;9.60;94.90;;;;;;5056317;28;20116;-75
2021/05/28 02:56:58;;;;;;;21.48;6.50;;;9.60;94.90;;;;;;5056338;28;20052;-74
2021/05/28 02:59:24;;;;;;;18.27;6.32;;;9.60;95.00;;;;;;5056479;28;20045;-75
2021/05/28 03:01:51;;;;;;;14.20;6.28;;;9.50;95.00;;;;;;5070412;28;20059;-75
2021/05/28 03:04:18;;;;;;;17.38;7.30;;;9.50;94.90;;;;;;5075903;28;20048;-75
2021/05/28 03:06:44;;;;;;;16.65;7.05;;;9.50;95.00;;;;;;5075606;28;20063;-75
2021/05/28 03:09:10;;;;;;;12.50;6.53;;;9.40;95.00;;;;;;5075880;28;20071;-75
2021/05/28 03:11:37;;;;;;;23.88;7.00;;;9.20;95.00;;;;;;5075712;28;20059;-75
2021/05/28 03:14:04;;;;;;;22.35;7.05;;;9.30;95.00;;;;;;5075486;28;20049;-75
2021/05/28 03:16:32;;;;;;;14.65;6.13;;;9.30;95.00;;;;;;5074822;28;20045;-75
2021/05/28 03:19:05;;;;;;;17.58;7.85;;;9.20;95.00;;;;;;5075757;28;20055;-75
2021/05/28 03:24:02;;;;;;;16.55;5.95;;;9.10;94.90;;;;;;5075397;28;20049;-75
2021/05/28 03:26:29;;;;;;;15.73;7.05;;;9.00;94.90;;;;;;5075708;28;20052;-74
2021/05/28 03:28:57;;;;;;;24.42;6.80;;;9.00;94.90;;;;;;5075461;28;20417;-75
2021/05/28 03:31:24;;;;;;;18.60;6.80;;;8.90;95.10;;;;;;5075590;28;20426;-75
2021/05/28 03:33:51;;;;;;;16.15;6.85;;;8.90;95.30;;;;;;5074898;28;20048;-74
2021/05/28 03:36:18;;;;;;;15.20;6.38;;;8.80;94.70;;;;;;5075057;28;20052;-74
2021/05/28 03:38:44;;;;;;;19.35;6.32;;;8.80;95.20;;;;;;5075461;28;20453;-74
2021/05/28 03:41:12;;;;;;;12.55;6.07;;;8.80;95.40;;;;;;5075210;28;20045;-74
2021/05/28 03:43:38;;;;;;;19.80;6.38;;;8.70;95.40;;;;;;5075161;28;20048;-75
2021/05/28 03:46:04;;;;;;;14.20;5.82;;;8.70;95.40;;;;;;5075444;28;20418;-74
2021/05/28 03:48:31;;;;;;;13.30;5.65;;;8.70;95.20;;;;;;5075294;28;20040;-74
2021/05/28 03:50:58;;;;;;;14.98;5.75;;;8.60;95.20;;;;;;5075392;28;20048;-74
2021/05/28 03:53:24;;;;;;;11.05;5.55;;;8.60;95.00;;;;;;5075154;28;20044;-74
2021/05/28 03:55:50;;;;;;;18.20;6.97;;;8.60;94.90;;;;;;5074334;28;20049;-74
2021/05/28 03:58:17;;;;;;;14.93;6.28;;;8.60;95.10;;;;;;5074993;28;20044;-75
2021/05/28 04:00:43;;;;;;;16.33;6.50;;;8.70;95.10;;;;;;5069184;28;20369;-75
2021/05/28 04:03:09;;;;;;;20.55;6.80;;;8.60;95.00;;;;;;5060170;28;20053;-74
2021/05/28 04:05:36;;;;;;;13.35;6.32;;;8.70;95.10;;;;;;5054574;28;20053;-75
2021/05/28 04:08:02;;;;;;;16.08;8.43;;;8.70;95.10;;;;;;5054794;28;20069;-75
2021/05/28 04:10:28;;;;;;;19.67;8.20;;;8.70;95.30;;;;;;5054854;28;20071;-75
2021/05/28 04:12:56;;;;;;;22.02;7.75;;;8.80;95.40;;;;;;5054417;28;20048;-74
2021/05/28 04:15:23;;;;;;;18.73;8.18;;;8.80;95.50;;;;;;5054514;28;20350;-75
2021/05/28 04:17:50;;;;;;;20.13;8.73;;;8.80;95.50;;;;;;5054660;28;20056;-75
2021/05/28 04:20:16;;;;;;;17.52;7.22;;;8.90;95.50;;;;;;5068214;28;20040;-75
2021/05/28 04:22:43;;;;;;;17.05;7.95;;;8.90;95.40;;;;;;5074678;28;20039;-75
2021/05/28 04:25:10;;;;;;;15.50;7.68;;;9.00;95.40;;;;;;5074288;28;20449;-75
2021/05/28 04:27:37;;;;;;;19.27;7.25;;;9.10;95.40;;;;;;5074714;28;20048;-75
2021/05/28 04:30:04;;;;;;;16.35;7.70;;;9.20;95.40;;;;;;5074709;28;20032;-75
2021/05/28 04:32:33;;;;;;;17.95;7.72;;;9.30;95.30;;;;;;5074755;28;20040;-75
2021/05/28 04:35:00;;;;;;;25.00;8.27;;;9.50;95.30;;;;;;5074221;28;20044;-75
2021/05/28 04:37:26;;;;;;;19.88;7.82;;;9.70;95.20;;;;;;5074535;28;20048;-75
2021/05/28 04:39:52;;;;;;;25.30;8.80;;;9.80;95.10;;;;;;5074368;28;20040;-75
2021/05/28 04:42:18;;;;;;;16.33;7.35;;;10.20;95.10;;;;;;5074599;28;20052;-75
2021/05/28 04:44:45;;;;;;;19.65;8.63;;;10.00;94.80;;;;;;5074360;28;20245;-75
2021/05/28 04:47:11;;;;;;;20.75;8.50;;;10.00;94.60;;;;;;5073952;28;20048;-75
2021/05/28 04:49:43;;;;;;;24.45;10.00;;;10.10;94.70;;;;;;5073977;28;20048;-75
2021/05/28 04:52:09;;;;;;;20.13;9.40;;;10.10;94.70;;;;;;5073775;28;20048;-75
2021/05/28 04:54:36;;;;;;;18.92;7.20;;;10.10;94.60;;;;;;5074193;28;20055;-75
2021/05/28 04:57:02;;;;;;;21.17;8.45;;;10.10;94.50;;;;;;5055982;28;20345;-75
2021/05/28 04:59:28;;;;;;;17.55;8.57;;;10.20;94.60;;;;;;5073805;28;20341;-75
2021/05/28 05:01:54;;;;;;;19.90;8.40;;;10.10;94.60;;;;;;5074116;28;20047;-75
2021/05/28 05:04:22;;;;;;;17.35;9.48;;;10.10;94.50;;;;;;5074128;28;20052;-75
2021/05/28 05:06:48;;;;;;;26.20;9.70;;;10.10;94.50;;;;;;5073783;28;20045;-76
2021/05/28 05:09:14;;;;;;;12.43;7.35;;;10.10;94.70;;;;;;5077493;28;20041;-77
2021/05/28 05:11:43;;;;;;;15.43;8.88;;;10.10;94.80;;;;;;5078569;28;20040;-76
2021/05/28 05:14:09;;;;;;;26.70;10.77;;;10.10;94.60;;;;;;5078213;28;20045;-76
2021/05/28 05:16:35;;;;;;;15.85;8.38;;;10.00;94.70;;;;;;5077788;28;20051;-76
2021/05/28 05:19:02;;;;;;;27.63;10.85;;;10.10;94.70;;;;;;5077996;28;20450;-76
2021/05/28 05:21:28;;;;;;;27.17;12.48;;;10.00;94.70;;;;;;5077991;28;20037;-76
2021/05/28 05:23:55;;;;;;;24.73;11.82;;;10.00;94.80;;;;;;5077795;28;20052;-76
2021/05/28 05:26:21;;;;;;;29.80;12.70;;;10.00;94.90;;;;;;5077727;28;20045;-76
2021/05/28 05:28:55;;;;;;;28.15;13.85;;;10.00;94.90;;;;;;5077805;28;20040;-77
2021/05/28 05:31:21;;;;;;;23.65;11.63;;;10.10;94.90;;;;;;5077453;28;20037;-77
2021/05/28 05:33:47;;;;;;;24.65;11.85;;;10.10;94.90;;;;;;5077554;28;20048;-77
2021/05/28 05:36:13;;;;;;;25.63;12.07;;;10.10;94.90;;;;;;5076718;28;20448;-76
2021/05/28 05:38:40;;;;;;;25.70;12.02;;;10.10;94.90;;;;;;5076449;28;20041;-77
2021/05/28 05:41:06;;;;;;;23.48;11.02;;;10.20;94.90;;;;;;5077146;28;20036;-76
2021/05/28 05:43:32;;;;;;;20.23;11.82;;;10.30;94.80;;;;;;5076541;28;20422;-77
2021/05/28 05:46:01;;;;;;;24.73;11.20;;;10.30;94.70;;;;;;5076832;28;20055;-77
2021/05/28 05:48:27;;;;;;;28.05;11.70;;;10.30;94.60;;;;;;5077048;28;20060;-77
2021/05/28 05:50:55;;;;;;;17.98;9.27;;;10.40;94.60;;;;;;5076666;28;20040;-77
2021/05/28 05:53:21;;;;;;;17.50;9.20;;;10.50;94.40;;;;;;5076704;28;20051;-75
2021/05/28 05:55:47;;;;;;;21.90;9.55;;;10.70;94.30;;;;;;5076121;28;20048;-76
2021/05/28 05:58:14;;;;;;;18.13;8.95;;;10.80;94.10;;;;;;5058700;28;20047;-76
2021/05/28 06:00:40;;;;;;;22.60;9.90;;;10.90;94.10;;;;;;5071414;28;20033;-75
2021/05/28 06:03:06;;;;;;;20.83;9.20;;;10.90;93.90;;;;;;5076166;28;20427;-76
2021/05/28 06:05:33;;;;;;;21.98;8.70;;;11.10;93.90;;;;;;5075777;28;20052;-76
2021/05/28 06:07:59;;;;;;;20.65;8.95;;;11.20;93.80;;;;;;5075426;28;20445;-75
2021/05/28 06:10:25;;;;;;;23.42;8.95;;;11.30;93.80;;;;;;5076318;28;20049;-77
2021/05/28 06:12:51;;;;;;;16.00;8.70;;;11.30;93.80;;;;;;5075331;28;20426;-77
2021/05/28 06:15:18;;;;;;;17.70;8.75;;;11.30;93.70;;;;;;5076339;28;20044;-75
2021/05/28 06:17:44;;;;;;;18.42;8.90;;;11.40;93.70;;;;;;5076117;28;20044;-76
2021/05/28 06:20:11;;;;;;;23.10;9.13;;;11.50;93.60;;;;;;5074955;28;20123;-77
2021/05/28 06:22:39;;;;;;;16.38;9.13;;;11.60;93.50;;;;;;5075393;28;20052;-77
2021/05/28 06:25:05;;;;;;;21.77;8.95;;;11.80;93.50;;;;;;5075386;28;20052;-76
2021/05/28 06:27:31;;;;;;;20.95;8.23;;;12.00;93.30;;;;;;5075569;28;20067;-77
2021/05/28 06:29:58;;;;;;;17.08;9.70;;;12.10;92.90;;;;;;5058041;28;20060;-76
2021/05/28 06:32:24;;;;;;;13.63;8.02;;;12.10;92.80;;;;;;5081063;28;20036;-77
2021/05/28 06:34:50;;;;;;;16.45;8.65;;;12.30;93.00;;;;;;5075994;28;20037;-77
2021/05/28 06:37:16;;;;;;;15.88;8.63;;;12.30;92.40;;;;;;5074828;28;20079;-75
2021/05/28 06:39:43;;;;;;;20.88;8.52;;;12.10;92.60;;;;;;5057358;28;20052;-75
2021/05/28 06:42:09;;;;;;;14.60;8.27;;;12.20;92.70;;;;;;5075355;28;20048;-75
2021/05/28 06:44:35;;;;;;;15.38;7.85;;;12.30;92.60;;;;;;5075857;28;20044;-76
2021/05/28 06:47:02;;;;;;;16.48;9.20;;;12.60;92.60;;;;;;5075455;28;20334;-76
2021/05/28 06:49:28;;;;;;;13.57;7.47;;;12.50;91.90;;;;;;5075393;28;20064;-76
2021/05/28 06:51:54;;;;;;;13.18;7.82;;;12.60;92.00;;;;;;5075492;28;20065;-76
2021/05/28 06:54:20;;;;;;;12.38;7.60;;;12.80;92.10;;;;;;5075985;28;20037;-75
2021/05/28 06:56:47;;;;;;;14.05;7.63;;;12.90;91.80;;;;;;5075341;28;20452;-76
2021/05/28 06:59:13;;;;;;;14.02;6.95;;;12.90;91.60;;;;;;5075261;28;20048;-76
2021/05/28 07:01:39;;;;;;;13.23;7.15;;;13.00;91.80;;;;;;5074841;28;20041;-76
2021/05/28 07:04:06;;;;;;;13.52;5.65;;;13.60;91.50;;;;;;5075109;28;20452;-76
2021/05/28 07:06:33;;;;;;;10.38;5.93;;;14.10;91.10;;;;;;5075325;28;20433;-76
2021/05/28 07:08:59;;;;;;;12.40;5.45;;;14.20;90.70;;;;;;5074704;28;20069;-75
2021/05/28 07:11:26;;;;;;;9.65;4.68;;;14.30;89.90;;;;;;5075315;28;20036;-76
2021/05/28 07:13:53;;;;;;;12.02;5.95;;;14.50;89.80;;;;;;5074582;28;20048;-75
2021/05/28 07:16:19;;;;;;;15.13;5.53;;;14.50;89.10;;;;;;5075226;28;20543;-75
2021/05/28 07:18:45;;;;;;;13.15;4.93;;;14.20;88.20;;;;;;5074887;28;20307;-76
2021/05/28 07:21:12;;;;;;;14.30;4.68;;;14.30;89.40;;;;;;5074917;28;20055;-76
2021/05/28 07:23:38;;;;;;;6.60;3.75;;;14.50;86.90;;;;;;5074563;28;20044;-75
2021/05/28 07:26:04;;;;;;;12.50;4.95;;;14.60;88.10;;;;;;5074870;28;20053;-77
2021/05/28 07:28:31;;;;;;;13.48;5.70;;;14.70;87.40;;;;;;5075391;28;20036;-77
2021/05/28 07:30:58;;;;;;;13.00;4.72;;;15.00;85.60;;;;;;5075347;28;20318;-76
2021/05/28 07:33:24;;;;;;;10.60;4.32;;;15.00;85.10;;;;;;5075698;28;20052;-75
2021/05/28 07:35:51;;;;;;;9.48;3.40;;;15.40;84.40;;;;;;5075350;28;20044;-83
2021/05/28 07:38:18;;;;;;;10.65;3.60;;;15.50;83.30;;;;;;5074441;28;20436;-80
2021/05/28 07:40:44;;;;;;;10.63;3.28;;;15.30;84.50;;;;;;5075013;28;20048;-80
2021/05/28 07:43:10;;;;;;;6.93;3.20;;;15.40;83.30;;;;;;5075272;28;20055;-81
2021/05/28 07:45:38;;;;;;;8.93;3.03;;;15.90;83.40;;;;;;5075548;28;20044;-78
2021/05/28 07:48:05;;;;;;;8.15;3.13;;;16.00;82.60;;;;;;5075034;28;20322;-77
2021/05/28 07:50:47;;;;;;;11.00;3.47;;;15.50;82.60;;;;;;5074889;28;20063;-80
2021/05/28 07:53:17;;;;;;;11.48;3.80;;;15.50;81.90;;;;;;5074296;28;20067;-78
2021/05/28 07:55:43;;;;;;;12.07;3.70;;;15.20;82.80;;;;;;5074674;28;20337;-79
2021/05/28 07:58:10;;;;;;;8.68;3.08;;;14.80;82.70;;;;;;5074758;28;20056;-77
2021/05/28 08:00:36;;;;;;;8.50;2.97;;;14.80;83.60;;;;;;5056804;28;20075;-76
2021/05/28 08:03:03;;;;;;;8.32;2.88;;;14.90;83.70;;;;;;5074639;28;20048;-77
2021/05/28 08:05:29;;;;;;;6.35;3.30;;;14.60;82.70;;;;;;5075237;28;20052;-78
2021/05/28 08:07:56;;;;;;;8.82;3.72;;;14.90;83.10;;;;;;5075270;28;20068;-77
2021/05/28 08:10:23;;;;;;;7.32;2.65;;;15.50;83.70;;;;;;5074706;28;20059;-78
2021/05/28 08:12:50;;;;;;;6.95;3.25;;;15.70;82.10;;;;;;5074610;28;20036;-78
2021/05/28 08:15:19;;;;;;;8.25;2.45;;;16.00;80.30;;;;;;5073925;28;20064;-77
2021/05/28 08:17:47;;;;;;;9.93;2.70;;;16.40;79.30;;;;;;5074837;28;20346;-77
2021/05/28 08:20:14;;;;;;;11.02;3.55;;;16.10;77.60;;;;;;5075032;28;20045;-78
2021/05/28 08:22:41;;;;;;;6.57;2.45;;;16.30;78.40;;;;;;5057115;28;20040;-77
2021/05/28 08:25:07;;;;;;;13.23;3.22;;;16.10;79.20;;;;;;5074922;28;20040;-77
2021/05/28 08:27:34;;;;;;;7.30;2.65;;;15.90;78.80;;;;;;5074802;28;20037;-78
2021/05/28 08:30:00;;;;;;;6.10;2.58;;;16.30;80.20;;;;;;5074534;28;20057;-78
2021/05/28 08:32:26;;;;;;;7.80;2.40;;;16.60;79.50;;;;;;5074514;28;20064;-78
2021/05/28 08:34:52;;;;;;;9.05;3.42;;;16.60;77.30;;;;;;5074846;28;20047;-77
2021/05/28 08:37:19;;;;;;;11.25;2.75;;;16.50;77.20;;;;;;5074097;28;20341;-78
2021/05/28 08:39:45;;;;;;;8.60;2.85;;;17.10;78.70;;;;;;5074199;28;20040;-78
2021/05/28 08:42:11;;;;;;;8.50;2.45;;;16.60;77.30;;;;;;5074450;28;20325;-77
2021/05/28 08:44:38;;;;;;;8.65;3.55;;;16.40;80.20;;;;;;5073776;28;20041;-77
2021/05/28 08:47:04;;;;;;;7.18;2.28;;;16.00;78.00;;;;;;5074285;28;20414;-77
2021/05/28 08:49:31;;;;;;;6.55;1.80;;;15.70;78.50;;;;;;5073146;28;20037;-77
2021/05/28 08:51:58;;;;;;;6.07;2.20;;;15.60;77.60;;;;;;5073415;28;20064;-76
2021/05/28 08:54:24;;;;;;;6.28;1.80;;;15.50;77.80;;;;;;5074274;28;20041;-76
2021/05/28 08:56:52;;;;;;;7.90;2.35;;;15.70;77.60;;;;;;5073435;28;20051;-77
2021/05/28 08:59:20;;;;;;;6.88;1.98;;;15.80;77.20;;;;;;5074457;28;20418;-77
2021/05/28 09:01:46;;;;;;;9.45;2.45;;;15.70;77.90;;;;;;5059788;28;20045;-76
2021/05/28 09:04:13;;;;;;;8.43;2.35;;;15.90;76.80;;;;;;5053720;28;20056;-76
2021/05/28 09:06:46;;;;;;;7.65;3.05;;;16.30;76.40;;;;;;5053471;28;20064;-76
2021/05/28 09:09:14;;;;;;;;;;;16.40;74.70;;;;;;5054341;28;20056;-77
2021/05/28 09:11:50;;;;;;;5.10;1.92;;;16.10;75.60;;;;;;5053743;28;20372;-76
2021/05/28 09:14:33;;;;;;;5.82;2.15;;;16.40;77.20;;;;;;5054193;28;20049;-77
2021/05/28 09:17:01;;;;;;;6.85;1.90;;;16.70;75.00;;;;;;5053956;28;20053;-76
2021/05/28 09:19:31;;;;;;;7.88;2.47;;;16.60;77.50;;;;;;5053880;28;20064;-77
2021/05/28 09:22:02;;;;;;;9.15;3.83;;;17.10;76.60;;;;;;5053410;28;20064;-78
2021/05/28 09:24:37;;;;;;;7.05;2.35;;;16.60;76.20;;;;;;5053644;28;20441;-76
2021/05/28 09:27:23;;;;;;;6.43;2.22;;;16.90;78.00;;;;;;5054379;28;20041;-76
2021/05/28 09:30:09;;;;;;;7.72;2.35;;;17.30;75.20;;;;;;5053469;28;20049;-76
2021/05/28 09:32:38;;;;;;;9.48;2.70;;;17.80;73.20;;;;;;5054228;28;20041;-76
2021/05/28 09:35:09;;;;;;;7.10;2.15;;;18.00;75.40;;;;;;5054283;28;20040;-76
2021/05/28 09:37:36;;;;;;;9.25;1.73;;;18.20;72.80;;;;;;5054267;28;20063;-77
2021/05/28 09:40:08;;;;;;;8.27;2.47;;;18.20;72.90;;;;;;5054145;28;20048;-76
2021/05/28 09:42:54;;;;;;;5.57;2.17;;;18.70;71.20;;;;;;5053687;28;20045;-77
2021/05/28 09:45:31;;;;;;;6.47;2.10;;;18.70;71.20;;;;;;5053838;28;20048;-76
2021/05/28 09:48:19;;;;;;;5.28;1.95;;;19.20;71.40;;;;;;5054277;28;20541;-77
2021/05/28 09:50:51;;;;;;;4.38;1.50;;;19.20;68.40;;;;;;5052650;28;20427;-78
2021/05/28 09:53:33;;;;;;;8.30;1.77;;;19.10;67.70;;;;;;5036787;28;20334;-77
2021/05/28 09:56:21;;;;;;;6.47;2.03;;;19.40;66.70;;;;;;5057310;28;20065;-77
2021/05/28 09:59:07;;;;;;;8.88;2.13;;;19.80;68.60;;;;;;5057382;28;20072;-77
2021/05/28 10:01:35;;;;;;;6.07;2.20;;;19.80;62.20;;;;;;5069412;28;20053;-78
2021/05/28 10:04:09;;;;;;;5.35;1.80;;;19.90;65.80;;;;;;5076858;28;20330;-78
2021/05/28 10:06:38;;;;;;;5.47;2.13;;;20.00;62.60;;;;;;5059604;28;20048;-78
2021/05/28 10:09:07;;;;;;;4.32;1.70;;;19.80;64.90;;;;;;5076987;28;20417;-77
2021/05/28 10:11:37;;;;;;;5.13;1.65;;;20.00;68.90;;;;;;5077176;28;20044;-77
2021/05/28 10:14:04;;;;;;;5.78;1.85;;;20.20;66.40;;;;;;5076437;28;20059;-77
2021/05/28 10:16:31;;;;;;;4.63;1.85;;;19.80;66.20;;;;;;5076837;28;20040;-76
2021/05/28 10:18:58;;;;;;;7.25;2.42;;;20.20;65.30;;;;;;5077002;28;20052;-76
2021/05/28 10:21:26;;;;;;;4.32;1.70;;;19.70;64.20;;;;;;5076947;28;20330;-76
2021/05/28 10:23:53;;;;;;;8.15;2.30;;;19.80;66.70;;;;;;5077037;28;20048;-77
2021/05/28 10:26:36;;;;;;;4.95;1.73;;;19.70;63.30;;;;;;5076283;28;20425;-77
2021/05/28 10:29:04;;;;;;;6.63;2.08;;;19.80;65.90;;;;;;5076186;28;20342;-77
2021/05/28 10:31:56;;;;;;;8.43;3.28;;;20.00;67.50;;;;;;5076876;28;20044;-75
2021/05/28 10:34:24;;;;;;;5.03;1.73;;;20.00;64.40;;;;;;5076634;28;20036;-75
2021/05/28 10:36:50;;;;;;;4.07;1.60;;;20.80;65.10;;;;;;5076128;28;20052;-76
2021/05/28 10:39:18;;;;;;;5.00;1.80;;;21.00;64.10;;;;;;5058855;28;20037;-76
2021/05/28 10:41:47;;;;;;;6.13;1.70;;;21.00;61.30;;;;;;5076061;28;20045;-76
2021/05/28 10:44:16;;;;;;;5.22;1.50;;;21.00;62.90;;;;;;5075773;28;20048;-77
2021/05/28 10:46:54;;;;;;;6.90;2.60;;;21.70;65.00;;;;;;5076577;28;20047;-76
2021/05/28 10:49:36;;;;;;;19.92;6.00;;;21.40;58.00;;;;;;5076739;28;20437;-75
2021/05/28 10:52:04;;;;;;;16.48;5.10;;;21.80;57.20;;;;;;5076322;28;20048;-74
2021/05/28 10:54:31;;;;;;;4.97;2.45;;;21.80;60.10;;;;;;5076295;28;20063;-74
2021/05/28 10:57:18;;;;;;;15.35;5.40;;;22.00;58.10;;;;;;5058889;28;20055;-74
2021/05/28 10:59:45;;;;;;;4.20;1.75;;;22.00;55.40;;;;;;5076242;28;20044;-75
2021/05/28 11:02:11;;;;;;;8.63;2.10;;;21.50;57.80;;;;;;5057853;28;20052;-75
2021/05/28 11:04:38;;;;;;;5.78;2.58;;;21.70;58.70;;;;;;5055956;28;20433;-76
2021/05/28 11:07:14;;;;;;;5.60;2.10;;;21.70;58.40;;;;;;5054776;28;20060;-76
2021/05/28 11:09:48;;;;;;;6.07;2.05;;;21.60;57.60;;;;;;5056418;28;20338;-77
2021/05/28 11:12:16;;;;;;;6.20;1.95;;;21.80;57.80;;;;;;5059465;28;20043;-77
2021/05/28 11:15:04;;;;;;;4.80;1.95;;;21.20;59.40;;;;;;5075576;28;20044;-77
2021/05/28 11:17:30;;;;;;;5.53;1.67;;;21.10;60.10;;;;;;5075688;28;20044;-78
2021/05/28 11:20:04;;;;;;;6.20;1.83;;;20.20;60.30;;;;;;5075650;28;20059;-76
2021/05/28 11:22:37;;;;;;;4.72;1.70;;;20.30;59.50;;;;;;5075594;28;20040;-76
2021/05/28 11:25:03;;;;;;;5.57;2.10;;;20.40;58.40;;;;;;5075613;28;20045;-76
2021/05/28 11:27:32;;;;;;;3.45;1.75;;;20.60;62.30;;;;;;5076127;28;20047;-77
2021/05/28 11:30:04;;;;;;;5.93;2.10;;;21.10;60.00;;;;;;5075633;28;20056;-76
2021/05/28 11:32:35;;;;;;;5.88;1.90;;;21.30;58.10;;;;;;5075299;28;20052;-76
2021/05/28 11:35:11;;;;;;;5.13;3.00;;;21.50;60.10;;;;;;5075441;28;20075;-77
2021/05/28 11:37:39;;;;;;;6.10;2.25;;;21.50;56.10;;;;;;5075732;28;20414;-79
2021/05/28 11:40:17;;;;;;;6.88;2.45;;;21.60;59.00;;;;;;5075407;28;20044;-76
2021/05/28 11:42:44;;;;;;;7.38;2.00;;;21.60;56.10;;;;;;5075983;28;20041;-76
2021/05/28 11:45:13;;;;;;;5.85;2.40;;;22.00;58.30;;;;;;5081360;28;20037;-78
2021/05/28 11:47:41;;;;;;;6.85;2.55;;;21.70;59.60;;;;;;5075591;28;20044;-78
2021/05/28 11:50:17;;;;;;;6.90;2.30;;;22.50;56.10;;;;;;5075747;28;20052;-76
2021/05/28 11:53:00;;;;;;;6.22;2.33;;;22.90;59.30;;;;;;5075037;28;20045;-77
2021/05/28 11:55:27;;;;;;;4.47;1.77;;;23.50;56.90;;;;;;5074797;28;20052;-75
2021/05/28 11:57:58;;;;;;;6.78;2.22;;;23.10;57.10;;;;;;5075139;28;20047;-75
2021/05/28 12:00:24;;;;;;;4.88;2.38;;;23.10;54.60;;;;;;5072267;28;20055;-75
2021/05/28 12:02:54;;;;;;;5.28;1.90;;;23.10;53.10;;;;;;5066129;28;20417;-75
2021/05/28 12:05:23;;;;;;;4.78;2.10;;;22.80;52.70;;;;;;5057119;28;20127;-75
2021/05/28 12:07:51;;;;;;;7.07;2.10;;;23.20;53.00;;;;;;5074314;28;20436;-75
2021/05/28 12:10:18;;;;;;;6.53;2.25;;;23.20;51.90;;;;;;5075087;28;20040;-75
2021/05/28 12:12:57;;;;;;;4.70;1.63;;;23.50;52.90;;;;;;5074811;28;20056;-75
2021/05/28 12:15:35;;;;;;;6.00;2.55;;;24.00;53.20;;;;;;5057297;28;20055;-76
2021/05/28 12:18:28;;;;;;;7.32;2.47;;;23.70;52.70;;;;;;5074932;28;20051;-75
2021/05/28 12:20:55;;;;;;;6.20;2.10;;;23.80;50.40;;;;;;5074841;28;20040;-75
2021/05/28 12:23:33;;;;;;;7.25;2.90;;;24.00;53.60;;;;;;5074756;28;20045;-75
2021/05/28 12:26:16;;;;;;;6.05;2.15;;;23.10;50.60;;;;;;5073959;28;20433;-75
2021/05/28 12:28:45;;;;;;;5.47;2.40;;;23.50;54.00;;;;;;5074160;28;20056;-75
2021/05/28 12:31:11;;;;;;;7.38;2.45;;;23.20;53.60;;;;;;5074405;28;20058;-74
2021/05/28 12:34:05;;;;;;;9.93;1.83;;;22.40;53.70;;;;;;5074589;28;20103;-75
2021/05/28 12:36:39;;;;;;;6.68;2.53;;;22.40;53.90;;;;;;5074231;28;20429;-75
2021/05/28 12:39:13;;;;;;;4.95;2.08;;;22.10;54.00;;;;;;5074383;28;20056;-75
2021/05/28 12:41:42;;;;;;;8.57;3.17;;;22.30;57.20;;;;;;5074574;28;20063;-75
2021/05/28 12:44:09;;;;;;;8.68;2.55;;;21.90;55.90;;;;;;5074396;28;20426;-75
2021/05/28 12:46:38;;;;;;;6.75;2.50;;;22.10;57.20;;;;;;5074546;28;20053;-75
2021/05/28 12:49:06;;;;;;;4.07;1.80;;;22.90;55.10;;;;;;5074291;28;20056;-75
2021/05/28 12:51:34;;;;;;;6.00;2.08;;;23.10;52.80;;;;;;5074005;28;20067;-75